Time,TemperatureF,DewpointF,PressureIn,WindDirection,WindDirectionDegrees,WindSpeedMPH,WindSpeedGustMPH,Humidity,HourlyPrecipIn,Conditions,Clouds,dailyrainin,SoftwareType,DateUTC
2013-06-10 00:12:00,60.0,15.0,-100.00,East,84,3.0,7.0,17,0.00,,,0.00,,2013-06-10 07:12:00,
2013-06-10 00:22:00,60.0,15.0,-100.00,East,84,3.0,7.0,17,0.00,,,0.00,,2013-06-10 07:22:00,
2013-06-10 00:32:00,60.0,15.0,-100.00,East,84,3.0,7.0,17,0.00,,,0.00,,2013-06-10 07:32:00,
2013-06-10 00:42:00,60.0,15.0,-100.00,East,84,3.0,7.0,17,0.00,,,0.00,,2013-06-10 07:42:00,
2013-06-10 00:52:00,60.0,15.0,-100.00,East,84,3.0,7.0,17,0.00,,,0.00,,2013-06-10 07:52:00,
2013-06-10 01:12:00,61.0,16.0,-100.00,ESE,121,3.0,6.0,17,0.00,,,0.00,,2013-06-10 08:12:00,
2013-06-10 01:22:00,61.0,16.0,-100.00,ESE,121,3.0,6.0,17,0.00,,,0.00,,2013-06-10 08:22:00,
2013-06-10 01:32:00,61.0,16.0,-100.00,ESE,121,3.0,6.0,17,0.00,,,0.00,,2013-06-10 08:32:00,
2013-06-10 01:42:00,61.0,16.0,-100.00,ESE,121,3.0,6.0,17,0.00,,,0.00,,2013-06-10 08:42:00,
2013-06-10 01:52:00,61.0,16.0,-100.00,ESE,121,3.0,6.0,17,0.00,,,0.00,,2013-06-10 08:52:00,
2013-06-10 01:53:00,63.0,18.0,-100.00,ESE,111,4.0,11.0,17,0.00,,,0.00,,2013-06-10 08:53:00,
2013-06-10 02:12:00,63.0,18.0,-100.00,ESE,111,4.0,11.0,17,0.00,,,0.00,,2013-06-10 09:12:00,
2013-06-10 02:22:00,63.0,18.0,-100.00,ESE,111,4.0,11.0,17,0.00,,,0.00,,2013-06-10 09:22:00,
2013-06-10 02:32:00,63.0,18.0,-100.00,ESE,111,4.0,11.0,17,0.00,,,0.00,,2013-06-10 09:32:00,
2013-06-10 02:42:00,63.0,18.0,-100.00,ESE,111,4.0,11.0,17,0.00,,,0.00,,2013-06-10 09:42:00,
2013-06-10 03:12:00,62.0,14.0,-100.00,East,98,6.0,13.0,15,0.00,,,0.00,,2013-06-10 10:12:00,
2013-06-10 03:22:00,62.0,14.0,-100.00,East,98,6.0,13.0,15,0.00,,,0.00,,2013-06-10 10:22:00,
2013-06-10 03:33:00,62.0,14.0,-100.00,East,98,6.0,13.0,15,0.00,,,0.00,,2013-06-10 10:33:00,
2013-06-10 03:42:00,62.0,14.0,-100.00,East,98,6.0,13.0,15,0.00,,,0.00,,2013-06-10 10:42:00,
2013-06-10 03:52:00,62.0,14.0,-100.00,East,98,6.0,13.0,15,0.00,,,0.00,,2013-06-10 10:52:00,
2013-06-10 04:12:00,60.0,15.0,-100.00,East,100,5.0,18.0,17,0.00,,,0.00,,2013-06-10 11:12:00,
2013-06-10 04:22:00,60.0,15.0,-100.00,East,100,5.0,18.0,17,0.00,,,0.00,,2013-06-10 11:22:00,
2013-06-10 04:32:00,60.0,15.0,-100.00,East,100,5.0,18.0,17,0.00,,,0.00,,2013-06-10 11:32:00,
2013-06-10 04:42:00,60.0,15.0,-100.00,East,100,5.0,18.0,17,0.00,,,0.00,,2013-06-10 11:42:00,
2013-06-10 04:52:00,60.0,15.0,-100.00,East,100,5.0,18.0,17,0.00,,,0.00,,2013-06-10 11:52:00,
2013-06-10 07:12:00,53.0,27.0,-100.00,NNW,341,3.0,10.0,37,-99.99,,,0.00,,2013-06-10 14:12:00,
2013-06-10 07:22:00,53.0,27.0,-100.00,NNW,341,3.0,10.0,37,-99.99,,,0.00,,2013-06-10 14:22:00,
2013-06-10 07:32:00,53.0,27.0,-100.00,NNW,341,3.0,10.0,37,-99.99,,,0.00,,2013-06-10 14:32:00,
2013-06-10 07:42:00,53.0,27.0,-100.00,NNW,341,3.0,10.0,37,-99.99,,,0.00,,2013-06-10 14:42:00,
2013-06-10 07:52:00,53.0,27.0,-100.00,NNW,341,3.0,10.0,37,-99.99,,,0.00,,2013-06-10 14:52:00,
2013-06-10 07:53:00,56.0,31.0,-100.00,North,350,3.0,8.0,38,0.00,,,0.00,,2013-06-10 14:53:00,
2013-06-10 08:12:00,56.0,31.0,-100.00,North,350,3.0,8.0,38,0.00,,,0.00,,2013-06-10 15:12:00,
2013-06-10 08:22:00,56.0,31.0,-100.00,North,350,3.0,8.0,38,0.00,,,0.00,,2013-06-10 15:22:00,
2013-06-10 08:33:00,56.0,31.0,-100.00,North,350,3.0,8.0,38,0.00,,,0.00,,2013-06-10 15:33:00,
2013-06-10 08:43:00,56.0,31.0,-100.00,North,350,3.0,8.0,38,0.00,,,0.00,,2013-06-10 15:43:00,
2013-06-10 09:12:00,61.0,29.0,-100.00,SSW,201,4.0,14.0,30,0.00,,,0.00,,2013-06-10 16:12:00,
2013-06-10 09:23:00,61.0,29.0,-100.00,SSW,201,4.0,14.0,30,0.00,,,0.00,,2013-06-10 16:23:00,
2013-06-10 09:33:00,61.0,29.0,-100.00,SSW,201,4.0,14.0,30,0.00,,,0.00,,2013-06-10 16:33:00,
2013-06-10 09:42:00,61.0,29.0,-100.00,SSW,201,4.0,14.0,30,0.00,,,0.00,,2013-06-10 16:42:00,
2013-06-10 09:52:00,61.0,29.0,-100.00,SSW,201,4.0,14.0,30,0.00,,,0.00,,2013-06-10 16:52:00,
2013-06-10 09:53:00,62.0,37.0,-100.00,WNW,292,4.0,9.0,39,0.00,,,0.00,,2013-06-10 16:53:00,
2013-06-10 10:14:00,62.0,37.0,-100.00,WNW,292,4.0,9.0,39,0.00,,,0.00,,2013-06-10 17:14:00,
2013-06-10 10:26:00,62.0,37.0,-100.00,WNW,292,4.0,9.0,39,0.00,,,0.00,,2013-06-10 17:26:00,
2013-06-10 10:38:00,62.0,37.0,-100.00,WNW,292,4.0,9.0,39,0.00,,,0.00,,2013-06-10 17:38:00,
2013-06-10 10:48:00,62.0,37.0,-100.00,WNW,292,4.0,9.0,39,0.00,,,0.00,,2013-06-10 17:48:00,
2013-06-10 10:53:00,65.0,34.0,-100.00,WNW,292,5.0,9.0,32,0.00,,,-99.99,,2013-06-10 17:53:00,
2013-06-10 11:14:00,65.0,34.0,-100.00,WNW,292,5.0,9.0,32,0.00,,,-99.99,,2013-06-10 18:14:00,
2013-06-10 11:24:00,65.0,34.0,-100.00,WNW,292,5.0,9.0,32,0.00,,,-99.99,,2013-06-10 18:24:00,
2013-06-10 11:34:00,65.0,34.0,-100.00,WNW,292,5.0,9.0,32,0.00,,,-99.99,,2013-06-10 18:34:00,
2013-06-10 11:48:00,65.0,34.0,-100.00,WNW,292,5.0,9.0,32,0.00,,,-99.99,,2013-06-10 18:48:00,
2013-06-10 12:12:00,68.0,36.0,-100.00,WNW,283,5.0,11.0,31,0.00,,,0.00,,2013-06-10 19:12:00,
2013-06-10 12:22:00,68.0,36.0,-100.00,WNW,283,5.0,11.0,31,0.00,,,0.00,,2013-06-10 19:22:00,
2013-06-10 12:32:00,68.0,36.0,-100.00,WNW,283,5.0,11.0,31,0.00,,,0.00,,2013-06-10 19:32:00,
2013-06-10 12:42:00,68.0,36.0,-100.00,WNW,283,5.0,11.0,31,0.00,,,0.00,,2013-06-10 19:42:00,
2013-06-10 12:52:00,68.0,36.0,-100.00,WNW,283,5.0,11.0,31,0.00,,,0.00,,2013-06-10 19:52:00,
2013-06-10 13:12:00,67.0,37.0,-100.00,WNW,290,5.0,10.0,33,0.00,,,0.00,,2013-06-10 20:12:00,
2013-06-10 13:22:00,67.0,37.0,-100.00,WNW,290,5.0,10.0,33,0.00,,,0.00,,2013-06-10 20:22:00,
2013-06-10 13:32:00,67.0,37.0,-100.00,WNW,290,5.0,10.0,33,0.00,,,0.00,,2013-06-10 20:32:00,
2013-06-10 13:42:00,67.0,37.0,-100.00,WNW,290,5.0,10.0,33,0.00,,,0.00,,2013-06-10 20:42:00,
2013-06-10 13:52:00,67.0,37.0,-100.00,WNW,290,5.0,10.0,33,0.00,,,0.00,,2013-06-10 20:52:00,
2013-06-10 13:53:00,66.0,35.0,-100.00,WNW,289,6.0,11.0,32,0.00,,,0.00,,2013-06-10 20:53:00,
2013-06-10 14:12:00,66.0,35.0,-100.00,WNW,289,6.0,11.0,32,0.00,,,0.00,,2013-06-10 21:12:00,
2013-06-10 14:22:00,66.0,35.0,-100.00,WNW,289,6.0,11.0,32,0.00,,,0.00,,2013-06-10 21:22:00,
2013-06-10 14:33:00,66.0,35.0,-100.00,WNW,289,6.0,11.0,32,0.00,,,0.00,,2013-06-10 21:33:00,
2013-06-10 14:43:00,66.0,35.0,-100.00,WNW,289,6.0,11.0,32,0.00,,,0.00,,2013-06-10 21:43:00,
2013-06-10 15:13:00,66.0,33.0,-100.00,WNW,296,8.0,14.0,29,0.00,,,0.00,,2013-06-10 22:13:00,
2013-06-10 15:22:00,66.0,33.0,-100.00,WNW,296,8.0,14.0,29,0.00,,,0.00,,2013-06-10 22:22:00,
2013-06-10 15:33:00,66.0,33.0,-100.00,WNW,296,8.0,14.0,29,0.00,,,0.00,,2013-06-10 22:33:00,
2013-06-10 15:42:00,66.0,33.0,-100.00,WNW,296,8.0,14.0,29,0.00,,,0.00,,2013-06-10 22:42:00,
2013-06-10 15:52:00,66.0,33.0,-100.00,WNW,296,8.0,14.0,29,0.00,,,0.00,,2013-06-10 22:52:00,
2013-06-10 16:12:00,68.0,37.0,-100.00,WNW,298,7.0,12.0,32,0.00,,,-99.99,,2013-06-10 23:12:00,
2013-06-10 16:22:00,68.0,37.0,-100.00,WNW,298,7.0,12.0,32,0.00,,,-99.99,,2013-06-10 23:22:00,
2013-06-10 16:32:00,68.0,37.0,-100.00,WNW,298,7.0,12.0,32,0.00,,,-99.99,,2013-06-10 23:32:00,
2013-06-10 16:42:00,68.0,37.0,-100.00,WNW,298,7.0,12.0,32,0.00,,,-99.99,,2013-06-10 23:42:00,
2013-06-10 16:52:00,68.0,37.0,-100.00,WNW,298,7.0,12.0,32,0.00,,,-99.99,,2013-06-10 23:52:00,
2013-06-10 17:12:00,67.0,36.0,-100.00,WNW,290,6.0,12.0,32,0.00,,,0.00,,2013-06-11 00:12:00,
2013-06-10 17:22:00,67.0,36.0,-100.00,WNW,290,6.0,12.0,32,0.00,,,0.00,,2013-06-11 00:22:00,
2013-06-10 17:32:00,67.0,36.0,-100.00,WNW,290,6.0,12.0,32,0.00,,,0.00,,2013-06-11 00:32:00,
2013-06-10 17:42:00,67.0,36.0,-100.00,WNW,290,6.0,12.0,32,0.00,,,0.00,,2013-06-11 00:42:00,
2013-06-10 17:52:00,67.0,36.0,-100.00,WNW,290,6.0,12.0,32,0.00,,,0.00,,2013-06-11 00:52:00,
2013-06-10 18:12:00,64.0,35.0,-100.00,WNW,298,6.0,12.0,34,0.00,,,0.00,,2013-06-11 01:12:00,
2013-06-10 18:22:00,64.0,35.0,-100.00,WNW,298,6.0,12.0,34,0.00,,,0.00,,2013-06-11 01:22:00,
2013-06-10 18:32:00,64.0,35.0,-100.00,WNW,298,6.0,12.0,34,0.00,,,0.00,,2013-06-11 01:32:00,
2013-06-10 18:42:00,64.0,35.0,-100.00,WNW,298,6.0,12.0,34,0.00,,,0.00,,2013-06-11 01:42:00,
2013-06-10 18:52:00,64.0,35.0,-100.00,WNW,298,6.0,12.0,34,0.00,,,0.00,,2013-06-11 01:52:00,
2013-06-10 19:12:00,61.0,39.0,-100.00,WNW,301,6.0,12.0,44,0.00,,,0.00,,2013-06-11 02:12:00,
2013-06-10 19:42:00,61.0,39.0,-100.00,WNW,301,6.0,12.0,44,0.00,,,0.00,,2013-06-11 02:42:00,
2013-06-10 19:52:00,61.0,39.0,-100.00,WNW,301,6.0,12.0,44,0.00,,,0.00,,2013-06-11 02:52:00,
2013-06-10 19:53:00,58.0,38.0,-100.00,NW,306,6.0,11.0,47,0.00,,,0.00,,2013-06-11 02:53:00,
2013-06-10 20:12:00,58.0,38.0,-100.00,NW,306,6.0,11.0,47,0.00,,,0.00,,2013-06-11 03:12:00,
2013-06-10 20:42:00,58.0,38.0,-100.00,NW,306,6.0,11.0,47,0.00,,,0.00,,2013-06-11 03:42:00,
2013-06-10 21:12:00,55.0,43.0,-100.00,NW,306,5.0,11.0,64,0.00,,,0.00,,2013-06-11 04:12:00,
2013-06-10 21:23:00,55.0,43.0,-100.00,NW,306,5.0,11.0,64,0.00,,,0.00,,2013-06-11 04:23:00,
2013-06-10 22:12:00,54.0,40.0,-100.00,NW,313,4.0,10.0,59,0.00,,,0.00,,2013-06-11 05:12:00,
2013-06-10 22:22:00,54.0,40.0,-100.00,NW,313,4.0,10.0,59,0.00,,,0.00,,2013-06-11 05:22:00,
2013-06-10 22:42:00,54.0,40.0,-100.00,NW,313,4.0,10.0,59,0.00,,,0.00,,2013-06-11 05:42:00,
2013-06-10 22:52:00,54.0,40.0,-100.00,NW,313,4.0,10.0,59,0.00,,,0.00,,2013-06-11 05:52:00,
2013-06-10 23:12:00,54.0,26.0,-100.00,North,9,2.0,9.0,34,0.00,,,0.00,,2013-06-11 06:12:00,
2013-06-10 23:22:00,54.0,26.0,-100.00,North,9,2.0,9.0,34,0.00,,,0.00,,2013-06-11 06:22:00,